Time;durP1;ratioP1;P1;durP2;ratioP2;P2;SDS_P1;SDS_P2;PMS_P1;PMS_P2;Temp;Humidity;BMP_temperature;BMP_pressure;BME280_temperature;BME280_humidity;BME280_pressure;Samples;Min_cycle;Max_cycle;Signal;HPM_P1;HPM_P2
2023/01/08 00:01:39;;;;;;;4.72;2.67;;;;;;;;;;6092835;23;20038;-83
2023/01/08 00:04:04;;;;;;;4.93;2.90;;;;;;;;;;6092363;23;20018;-82
2023/01/08 00:06:30;;;;;;;4.70;2.58;;;;;;;;;;6093535;23;20014;-83
2023/01/08 00:08:55;;;;;;;4.75;3.00;;;;;;;;;;6093279;23;20041;-83
2023/01/08 00:11:21;;;;;;;4.68;2.72;;;;;;;;;;6091413;23;20013;-83
2023/01/08 00:13:46;;;;;;;4.60;2.83;;;;;;;;;;6092995;23;20020;-83
2023/01/08 00:16:15;;;;;;;5.57;2.78;;;;;;;;;;6090503;23;20096;-82
2023/01/08 00:18:41;;;;;;;5.45;3.28;;;;;;;;;;6092569;23;20056;-83
2023/01/08 00:21:06;;;;;;;5.05;2.70;;;;;;;;;;6091774;23;20013;-83
2023/01/08 00:23:32;;;;;;;5.70;2.90;;;;;;;;;;6132388;23;20024;-83
2023/01/08 00:26:08;;;;;;;4.70;2.78;;;;;;;;;;6091404;23;20096;-83
2023/01/08 00:28:34;;;;;;;20.13;8.63;;;;;;;;;;6092894;23;20104;-83
2023/01/08 00:31:02;;;;;;;32.15;12.27;;;;;;;;;;6092955;23;20017;-83
2023/01/08 00:33:30;;;;;;;9.18;4.72;;;;;;;;;;6093213;23;20350;-82
2023/01/08 00:35:55;;;;;;;6.32;3.33;;;;;;;;;;6092406;23;20010;-84
2023/01/08 00:38:27;;;;;;;5.13;2.95;;;;;;;;;;6093075;23;20041;-82
2023/01/08 00:40:53;;;;;;;13.00;5.80;;;;;;;;;;6092386;23;20018;-83
2023/01/08 00:43:19;;;;;;;19.27;9.25;;;;;;;;;;6117042;23;20026;-82
2023/01/08 00:45:44;;;;;;;9.20;5.32;;;;;;;;;;6091677;23;20470;-83
2023/01/08 00:48:10;;;;;;;6.72;3.53;;;;;;;;;;6091118;23;20021;-82
2023/01/08 00:50:35;;;;;;;5.65;3.22;;;;;;;;;;6116456;23;20342;-83
2023/01/08 00:53:02;;;;;;;4.78;2.88;;;;;;;;;;6093897;23;20450;-83
2023/01/08 00:55:28;;;;;;;5.78;3.00;;;;;;;;;;6092022;23;20053;-82
2023/01/08 00:57:53;;;;;;;5.35;3.20;;;;;;;;;;6092545;23;20014;-83
2023/01/08 01:00:18;;;;;;;5.00;2.90;;;;;;;;;;6091981;23;20028;-82
2023/01/08 01:02:44;;;;;;;5.32;3.20;;;;;;;;;;6117507;23;20473;-82
2023/01/08 01:05:14;;;;;;;6.68;3.55;;;;;;;;;;6091396;23;20017;-83
2023/01/08 01:07:39;;;;;;;5.72;3.10;;;;;;;;;;6093286;23;20014;-83
2023/01/08 01:10:05;;;;;;;5.13;2.92;;;;;;;;;;6117013;23;20017;-83
2023/01/08 01:12:30;;;;;;;5.28;3.13;;;;;;;;;;6116043;23;20072;-83
2023/01/08 01:14:56;;;;;;;6.43;3.30;;;;;;;;;;6115735;23;20505;-83
2023/01/08 01:17:21;;;;;;;10.25;3.60;;;;;;;;;;6091902;23;20025;-84
2023/01/08 01:19:47;;;;;;;5.70;3.40;;;;;;;;;;6116919;23;20374;-84
2023/01/08 01:22:12;;;;;;;5.45;3.30;;;;;;;;;;6092235;23;20014;-83
2023/01/08 01:24:37;;;;;;;5.28;3.13;;;;;;;;;;6092116;23;20053;-83
2023/01/08 01:27:03;;;;;;;5.18;3.35;;;;;;;;;;6116378;23;20018;-83
2023/01/08 01:29:28;;;;;;;6.15;3.00;;;;;;;;;;6092700;23;20022;-83
2023/01/08 01:31:54;;;;;;;7.78;3.38;;;;;;;;;;6091565;23;20013;-83
2023/01/08 01:34:19;;;;;;;6.18;3.40;;;;;;;;;;6091721;23;20014;-83
2023/01/08 01:36:44;;;;;;;6.00;3.53;;;;;;;;;;6116564;23;20337;-82
2023/01/08 01:39:10;;;;;;;5.88;3.20;;;;;;;;;;6091862;23;20021;-83
2023/01/08 01:41:43;;;;;;;6.07;3.00;;;;;;;;;;6091413;23;20497;-84
2023/01/08 01:44:33;;;;;;;6.10;3.70;;;;;;;;;;6091441;23;20016;-83
2023/01/08 01:47:02;;;;;;;4.70;3.05;;;;;;;;;;6115899;23;20028;-82
2023/01/08 01:49:27;;;;;;;5.70;3.28;;;;;;;;;;6115914;23;20485;-85
2023/01/08 01:51:55;;;;;;;6.05;3.20;;;;;;;;;;6091095;23;20017;-83
2023/01/08 01:54:21;;;;;;;5.68;3.42;;;;;;;;;;6091697;23;20097;-83
2023/01/08 01:56:47;;;;;;;6.00;3.22;;;;;;;;;;6091015;23;20346;-83
2023/01/08 01:59:12;;;;;;;5.70;3.15;;;;;;;;;;6091746;23;20026;-82
2023/01/08 02:01:39;;;;;;;5.45;3.22;;;;;;;;;;6090409;23;20021;-83
2023/01/08 02:04:05;;;;;;;7.47;3.35;;;;;;;;;;6116270;23;20736;-83
2023/01/08 02:06:39;;;;;;;5.90;3.30;;;;;;;;;;6091626;23;20021;-82
2023/01/08 02:09:07;;;;;;;5.68;3.42;;;;;;;;;;6115838;23;20014;-83
2023/01/08 02:11:46;;;;;;;5.78;3.40;;;;;;;;;;6115366;23;20021;-84
2023/01/08 02:14:54;;;;;;;6.32;4.13;;;;;;;;;;6115873;23;20450;-82
2023/01/08 02:17:45;;;;;;;5.90;3.80;;;;;;;;;;6114940;23;20159;-84
2023/01/08 02:20:12;;;;;;;8.60;4.00;;;;;;;;;;6117434;23;20069;-83
2023/01/08 02:22:51;;;;;;;6.97;4.13;;;;;;;;;;6090645;23;20466;-84
2023/01/08 02:25:50;;;;;;;7.78;4.40;;;;;;;;;;6091292;23;20250;-83
2023/01/08 02:28:16;;;;;;;6.38;4.15;;;;;;;;;;6115976;23;20098;-83
2023/01/08 02:30:41;;;;;;;7.70;4.28;;;;;;;;;;6090035;23;20049;-83
2023/01/08 02:33:07;;;;;;;7.50;4.75;;;;;;;;;;6091204;23;20014;-83
2023/01/08 02:35:46;;;;;;;6.70;4.43;;;;;;;;;;6090318;23;20024;-83
2023/01/08 02:38:13;;;;;;;7.03;4.30;;;;;;;;;;6115871;23;20022;-82
2023/01/08 02:40:52;;;;;;;7.87;4.80;;;;;;;;;;6090392;23;20329;-83
2023/01/08 02:43:25;;;;;;;8.13;4.05;;;;;;;;;;6115764;23;20018;-84
2023/01/08 02:45:55;;;;;;;7.13;4.40;;;;;;;;;;6090656;23;20096;-83
2023/01/08 02:48:41;;;;;;;8.10;4.55;;;;;;;;;;6090703;23;20020;-83
2023/01/08 02:51:17;;;;;;;7.22;4.78;;;;;;;;;;6113997;23;20047;-83
2023/01/08 02:53:47;;;;;;;7.82;5.00;;;;;;;;;;6091750;23;20022;-83
2023/01/08 02:56:22;;;;;;;7.72;5.00;;;;;;;;;;6090197;23;20048;-84
2023/01/08 02:58:48;;;;;;;8.18;4.88;;;;;;;;;;6091590;23;20006;-83
2023/01/08 03:01:15;;;;;;;7.43;4.68;;;;;;;;;;6090484;23;20014;-82
2023/01/08 03:04:18;;;;;;;7.85;4.75;;;;;;;;;;6091398;23;20016;-84
2023/01/08 03:06:44;;;;;;;8.30;4.75;;;;;;;;;;6089167;23;20018;-83
2023/01/08 03:09:10;;;;;;;8.60;4.90;;;;;;;;;;6091344;23;20033;-83
2023/01/08 03:11:43;;;;;;;7.25;4.68;;;;;;;;;;6090959;23;20017;-83
2023/01/08 03:14:15;;;;;;;7.90;4.63;;;;;;;;;;6091488;23;20018;-82
2023/01/08 03:16:45;;;;;;;8.50;4.97;;;;;;;;;;6136740;23;20025;-83
2023/01/08 03:19:20;;;;;;;7.85;4.32;;;;;;;;;;6096194;23;20095;-83
2023/01/08 03:21:45;;;;;;;6.90;4.88;;;;;;;;;;6091387;23;20688;-83
2023/01/08 03:24:14;;;;;;;7.70;5.20;;;;;;;;;;6115283;23;20018;-83
2023/01/08 03:26:41;;;;;;;9.32;5.15;;;;;;;;;;6090508;23;20010;-83
2023/01/08 03:29:10;;;;;;;7.47;4.60;;;;;;;;;;6114725;23;20021;-82
2023/01/08 03:31:37;;;;;;;9.35;5.43;;;;;;;;;;6115838;23;20014;-83
2023/01/08 03:34:03;;;;;;;7.60;4.95;;;;;;;;;;6090764;23;20013;-83
2023/01/08 03:36:29;;;;;;;8.25;4.57;;;;;;;;;;6091317;23;20326;-83
2023/01/08 03:39:08;;;;;;;8.43;5.35;;;;;;;;;;6091382;23;20018;-84
2023/01/08 03:41:35;;;;;;;7.82;4.90;;;;;;;;;;6115207;23;20018;-83
2023/01/08 03:44:00;;;;;;;9.48;5.43;;;;;;;;;;6116408;23;20026;-82
2023/01/08 03:46:36;;;;;;;7.70;4.80;;;;;;;;;;6090232;23;20401;-83
2023/01/08 03:49:03;;;;;;;8.52;5.20;;;;;;;;;;6091088;23;20018;-83
2023/01/08 03:51:38;;;;;;;8.57;4.95;;;;;;;;;;6091915;23;20009;-83
2023/01/08 03:54:07;;;;;;;7.65;4.65;;;;;;;;;;6092563;23;20017;-83
2023/01/08 03:56:32;;;;;;;6.97;4.65;;;;;;;;;;6092363;23;20021;-84
2023/01/08 03:58:58;;;;;;;9.35;5.30;;;;;;;;;;6118115;23;20014;-82
2023/01/08 04:01:23;;;;;;;8.68;4.85;;;;;;;;;;6091846;23;20021;-83
2023/01/08 04:03:49;;;;;;;8.95;5.38;;;;;;;;;;6117962;23;20018;-83
2023/01/08 04:06:14;;;;;;;8.13;4.82;;;;;;;;;;6091204;23;20357;-83
2023/01/08 04:08:40;;;;;;;7.78;4.70;;;;;;;;;;6092912;23;20041;-83
2023/01/08 04:11:05;;;;;;;7.38;4.75;;;;;;;;;;6091810;23;20010;-83
2023/01/08 04:13:30;;;;;;;7.25;4.72;;;;;;;;;;6093642;23;20018;-82
2023/01/08 04:15:56;;;;;;;9.13;5.53;;;;;;;;;;6092189;23;20010;-82
2023/01/08 04:18:22;;;;;;;8.32;5.10;;;;;;;;;;6116988;23;20034;-84
2023/01/08 04:20:47;;;;;;;9.93;5.47;;;;;;;;;;6091765;23;20009;-84
2023/01/08 04:23:13;;;;;;;8.15;5.22;;;;;;;;;;6117616;23;20089;-83
2023/01/08 04:25:39;;;;;;;9.85;5.22;;;;;;;;;;6091078;23;20113;-83
2023/01/08 04:28:04;;;;;;;8.52;5.78;;;;;;;;;;6093213;23;20415;-83
2023/01/08 04:30:30;;;;;;;8.68;5.60;;;;;;;;;;6092136;23;20089;-83
2023/01/08 04:32:55;;;;;;;9.27;5.45;;;;;;;;;;6092762;23;20018;-83
2023/01/08 04:35:21;;;;;;;9.10;5.40;;;;;;;;;;6091999;23;20022;-84
2023/01/08 04:37:46;;;;;;;8.43;5.10;;;;;;;;;;6116824;23;20358;-83
2023/01/08 04:40:12;;;;;;;9.02;5.45;;;;;;;;;;6116037;23;20338;-83
2023/01/08 04:42:37;;;;;;;8.10;4.85;;;;;;;;;;6092244;23;20017;-83
2023/01/08 04:45:04;;;;;;;9.77;6.03;;;;;;;;;;6092093;23;20010;-83
2023/01/08 04:47:29;;;;;;;7.80;5.17;;;;;;;;;;6092875;23;20045;-82
2023/01/08 04:49:55;;;;;;;8.27;5.20;;;;;;;;;;6116848;23;20342;-82
2023/01/08 04:52:20;;;;;;;9.00;5.80;;;;;;;;;;6091841;23;20406;-83
2023/01/08 04:54:45;;;;;;;8.68;5.35;;;;;;;;;;6092009;23;20041;-82
2023/01/08 04:57:11;;;;;;;9.10;5.35;;;;;;;;;;6092020;23;20439;-82
2023/01/08 04:59:36;;;;;;;7.68;5.10;;;;;;;;;;6092030;23;20675;-82
2023/01/08 05:02:02;;;;;;;8.23;5.10;;;;;;;;;;6092498;23;20089;-82
2023/01/08 05:04:27;;;;;;;8.57;5.10;;;;;;;;;;6091906;23;20041;-82
2023/01/08 05:06:52;;;;;;;7.60;4.95;;;;;;;;;;6092423;23;20022;-83
2023/01/08 05:09:18;;;;;;;8.02;5.00;;;;;;;;;;6092307;23;20044;-83
2023/01/08 05:11:43;;;;;;;11.35;4.78;;;;;;;;;;6091589;23;20014;-83
2023/01/08 05:14:09;;;;;;;11.18;5.10;;;;;;;;;;6091720;23;20085;-82
2023/01/08 05:16:34;;;;;;;7.28;4.55;;;;;;;;;;6091443;23;20014;-84
2023/01/08 05:19:00;;;;;;;8.02;4.95;;;;;;;;;;6116716;23;20024;-83
2023/01/08 05:21:25;;;;;;;9.45;4.78;;;;;;;;;;6091701;23;20085;-83
2023/01/08 05:23:50;;;;;;;6.88;4.30;;;;;;;;;;6091173;23;20419;-83
2023/01/08 05:26:16;;;;;;;7.97;4.72;;;;;;;;;;6090981;23;20022;-83
2023/01/08 05:28:42;;;;;;;7.97;4.60;;;;;;;;;;6092172;23;20204;-83
2023/01/08 05:31:07;;;;;;;6.55;4.10;;;;;;;;;;6115887;23;20018;-83
2023/01/08 05:33:33;;;;;;;8.43;4.45;;;;;;;;;;6092518;23;20014;-84
2023/01/08 05:35:58;;;;;;;7.07;4.25;;;;;;;;;;6091655;23;20092;-82
2023/01/08 05:38:23;;;;;;;7.07;4.00;;;;;;;;;;6092411;23;20369;-83
2023/01/08 05:40:52;;;;;;;8.38;4.57;;;;;;;;;;6090872;23;20033;-83
2023/01/08 05:43:17;;;;;;;7.50;4.35;;;;;;;;;;6092200;23;20510;-82
2023/01/08 05:45:43;;;;;;;7.45;4.60;;;;;;;;;;6090635;23;20033;-84
2023/01/08 05:48:08;;;;;;;6.80;4.13;;;;;;;;;;6115929;23;20053;-82
2023/01/08 05:50:34;;;;;;;6.57;3.97;;;;;;;;;;6091179;23;20061;-83
2023/01/08 05:53:00;;;;;;;6.72;3.75;;;;;;;;;;6092084;23;20324;-83
2023/01/08 05:55:25;;;;;;;6.85;4.07;;;;;;;;;;6090970;23;20080;-82
2023/01/08 05:57:50;;;;;;;6.15;3.83;;;;;;;;;;6091944;23;20073;-83
2023/01/08 06:00:16;;;;;;;6.72;4.18;;;;;;;;;;6090696;23;20018;-83
2023/01/08 06:02:46;;;;;;;5.80;3.65;;;;;;;;;;6091372;23;20024;-82
2023/01/08 06:05:11;;;;;;;7.07;3.88;;;;;;;;;;6090899;23;20028;-83
2023/01/08 06:07:37;;;;;;;7.03;4.07;;;;;;;;;;6091786;23;20506;-82
2023/01/08 06:10:02;;;;;;;7.13;4.32;;;;;;;;;;6091531;23;20442;-82
2023/01/08 06:12:28;;;;;;;6.13;3.58;;;;;;;;;;6091540;23;20018;-82
2023/01/08 06:14:53;;;;;;;7.03;4.20;;;;;;;;;;6091289;23;20021;-82
2023/01/08 06:17:18;;;;;;;6.80;3.60;;;;;;;;;;6090436;23;20061;-82
2023/01/08 06:19:46;;;;;;;6.28;3.70;;;;;;;;;;6091647;23;20025;-83
2023/01/08 06:22:11;;;;;;;6.88;4.20;;;;;;;;;;6090924;23;20018;-83
2023/01/08 06:24:36;;;;;;;6.05;3.65;;;;;;;;;;6115974;23;20010;-83
2023/01/08 06:27:02;;;;;;;5.60;3.53;;;;;;;;;;6091700;23;20065;-82
2023/01/08 06:29:27;;;;;;;6.72;4.03;;;;;;;;;;6091166;23;20016;-83
2023/01/08 06:31:53;;;;;;;7.10;4.05;;;;;;;;;;6090033;23;20076;-84
2023/01/08 06:34:18;;;;;;;7.25;3.67;;;;;;;;;;6091607;23;20021;-85
2023/01/08 06:36:43;;;;;;;7.22;3.85;;;;;;;;;;6090964;23;20022;-84
2023/01/08 06:39:09;;;;;;;5.93;3.65;;;;;;;;;;6090882;23;20316;-84
2023/01/08 06:41:34;;;;;;;5.78;3.47;;;;;;;;;;6090489;23;20037;-84
2023/01/08 06:44:00;;;;;;;5.93;3.50;;;;;;;;;;6091388;23;20017;-86
2023/01/08 06:46:25;;;;;;;5.50;3.53;;;;;;;;;;6090741;23;20006;-85
2023/01/08 06:48:50;;;;;;;7.00;3.97;;;;;;;;;;6092084;23;20014;-85
2023/01/08 06:51:16;;;;;;;5.93;3.65;;;;;;;;;;6090778;23;20089;-85
2023/01/08 06:53:41;;;;;;;5.70;3.33;;;;;;;;;;6091483;23;20018;-85
2023/01/08 06:56:09;;;;;;;5.53;3.60;;;;;;;;;;6090129;23;20434;-86
2023/01/08 06:58:35;;;;;;;;;;;;;;;;;;6092356;23;20022;-85
2023/01/08 07:01:01;;;;;;;5.72;3.15;;;;;;;;;;6090221;23;19980;-85
2023/01/08 07:03:26;;;;;;;5.13;2.90;;;;;;;;;;6115143;23;20025;-86
2023/01/08 07:05:51;;;;;;;5.10;3.00;;;;;;;;;;6089824;23;20018;-86
2023/01/08 07:08:17;;;;;;;6.70;3.33;;;;;;;;;;6091219;23;20041;-86
2023/01/08 07:10:43;;;;;;;5.22;3.25;;;;;;;;;;6090282;23;20145;-86
2023/01/08 07:13:11;;;;;;;5.70;3.20;;;;;;;;;;6091103;23;20010;-86
2023/01/08 07:15:36;;;;;;;;;;;;;;;;;;6091359;23;20014;-86
2023/01/08 07:18:09;;;;;;;5.68;3.05;;;;;;;;;;6091988;23;19923;-87
2023/01/08 07:20:35;;;;;;;5.38;3.20;;;;;;;;;;6090999;23;20030;-87
2023/01/08 07:23:05;;;;;;;5.50;3.10;;;;;;;;;;6115976;23;20049;-86
2023/01/08 07:25:31;;;;;;;5.32;3.17;;;;;;;;;;6090712;23;20454;-86
2023/01/08 07:27:58;;;;;;;5.70;3.33;;;;;;;;;;6092662;23;20446;-86
2023/01/08 07:30:23;;;;;;;6.10;3.47;;;;;;;;;;6091692;23;20505;-86
2023/01/08 07:32:49;;;;;;;5.78;3.50;;;;;;;;;;6093193;23;20026;-85
2023/01/08 07:35:14;;;;;;;5.70;3.53;;;;;;;;;;6092370;23;20018;-85
2023/01/08 07:37:41;;;;;;;6.15;3.55;;;;;;;;;;6117536;23;20072;-85
2023/01/08 07:40:08;;;;;;;5.10;3.00;;;;;;;;;;6092904;23;20037;-85
2023/01/08 07:42:33;;;;;;;8.57;3.90;;;;;;;;;;6101149;23;20018;-84
2023/01/08 07:44:59;;;;;;;7.07;4.22;;;;;;;;;;6080074;23;20331;-84
2023/01/08 07:47:24;;;;;;;6.18;3.92;;;;;;;;;;6115544;23;20018;-85
2023/01/08 07:49:50;;;;;;;5.90;3.60;;;;;;;;;;6116713;23;20351;-84
2023/01/08 07:52:18;;;;;;;5.85;3.35;;;;;;;;;;6115844;23;20018;-85
2023/01/08 07:54:46;;;;;;;7.15;3.85;;;;;;;;;;6091397;23;20619;-82
2023/01/08 07:57:12;;;;;;;6.47;3.83;;;;;;;;;;6090224;23;20030;-85
2023/01/08 07:59:37;;;;;;;5.38;3.40;;;;;;;;;;6091903;23;20017;-85
2023/01/08 08:02:03;;;;;;;6.10;3.65;;;;;;;;;;6090923;23;20057;-85
2023/01/08 08:04:28;;;;;;;6.63;3.95;;;;;;;;;;6092642;23;20018;-85
2023/01/08 08:06:54;;;;;;;6.85;3.97;;;;;;;;;;6092059;23;20090;-85
2023/01/08 08:09:19;;;;;;;6.65;3.67;;;;;;;;;;6092581;23;20028;-86
2023/01/08 08:11:45;;;;;;;8.40;4.30;;;;;;;;;;6091981;23;20361;-85
2023/01/08 08:14:10;;;;;;;7.68;4.13;;;;;;;;;;6092225;23;20493;-85
2023/01/08 08:16:35;;;;;;;7.43;4.55;;;;;;;;;;6116138;23;20029;-86
2023/01/08 08:19:01;;;;;;;7.10;4.18;;;;;;;;;;6074909;23;20021;-85
2023/01/08 08:21:28;;;;;;;7.72;4.18;;;;;;;;;;6108289;23;20014;-86
2023/01/08 08:23:54;;;;;;;6.18;3.67;;;;;;;;;;6090313;23;20083;-85
2023/01/08 08:26:19;;;;;;;6.78;4.00;;;;;;;;;;6113221;23;20014;-85
2023/01/08 08:28:45;;;;;;;6.55;3.90;;;;;;;;;;6089734;23;20010;-85
2023/01/08 08:31:10;;;;;;;7.35;3.95;;;;;;;;;;6088068;23;20026;-86
2023/01/08 08:33:36;;;;;;;7.18;4.75;;;;;;;;;;6112646;23;20050;-88
2023/01/08 08:36:02;;;;;;;5.97;4.00;;;;;;;;;;6088879;23;20022;-86
2023/01/08 08:38:27;;;;;;;6.05;3.70;;;;;;;;;;6088635;23;20014;-86
2023/01/08 08:40:53;;;;;;;6.40;3.80;;;;;;;;;;6088508;23;20064;-86
2023/01/08 08:43:19;;;;;;;6.80;4.47;;;;;;;;;;6090546;23;20021;-86
2023/01/08 08:45:44;;;;;;;6.78;4.40;;;;;;;;;;6087082;23;20014;-86
2023/01/08 08:48:10;;;;;;;7.32;4.05;;;;;;;;;;6103967;23;20451;-86
2023/01/08 08:50:36;;;;;;;7.07;4.18;;;;;;;;;;6089310;23;20442;-85
2023/01/08 08:53:04;;;;;;;6.93;4.10;;;;;;;;;;6115730;23;20021;-86
2023/01/08 08:55:30;;;;;;;8.63;4.03;;;;;;;;;;6087805;23;20088;-85
2023/01/08 08:58:05;;;;;;;7.28;3.80;;;;;;;;;;6109031;23;20080;-86
2023/01/08 09:00:31;;;;;;;7.97;4.03;;;;;;;;;;6076626;23;20075;-85
2023/01/08 09:02:56;;;;;;;6.95;4.13;;;;;;;;;;6090566;23;20100;-86
2023/01/08 09:05:25;;;;;;;6.72;3.65;;;;;;;;;;6110981;23;20120;-86
2023/01/08 09:07:51;;;;;;;5.85;3.67;;;;;;;;;;6077854;23;20029;-85
2023/01/08 09:10:16;;;;;;;5.50;3.45;;;;;;;;;;6095165;23;20458;-86
2023/01/08 09:12:42;;;;;;;5.80;3.60;;;;;;;;;;6089156;23;20390;-85
2023/01/08 09:15:08;;;;;;;6.03;3.72;;;;;;;;;;6112871;23;20521;-85
2023/01/08 09:17:37;;;;;;;6.35;3.58;;;;;;;;;;6109948;23;20022;-86
2023/01/08 09:21:06;;;;;;;7.15;3.60;;;;;;;;;;6073408;23;20026;-87
2023/01/08 09:23:48;;;;;;;6.63;3.75;;;;;;;;;;6066839;23;20021;-87
2023/01/08 09:26:31;;;;;;;6.45;3.67;;;;;;;;;;6033753;23;20085;-87
2023/01/08 09:29:05;;;;;;;6.50;3.47;;;;;;;;;;6086815;23;20032;-85
2023/01/08 09:31:44;;;;;;;7.22;3.78;;;;;;;;;;6060409;23;20576;-85
2023/01/08 09:34:15;;;;;;;6.28;3.42;;;;;;;;;;6078531;23;20025;-86
2023/01/08 09:36:51;;;;;;;6.82;3.70;;;;;;;;;;6068513;23;20607;-85
2023/01/08 09:39:20;;;;;;;7.38;3.63;;;;;;;;;;6077834;23;20028;-87
2023/01/08 09:41:46;;;;;;;5.63;3.30;;;;;;;;;;6097862;23;20038;-85
2023/01/08 09:44:19;;;;;;;5.00;3.00;;;;;;;;;;6061705;23;20652;-85
2023/01/08 09:46:46;;;;;;;5.60;3.60;;;;;;;;;;6112731;23;20500;-85
2023/01/08 09:49:14;;;;;;;5.32;3.25;;;;;;;;;;6090792;23;20026;-85
2023/01/08 09:51:48;;;;;;;6.15;3.53;;;;;;;;;;6061596;23;20010;-86
2023/01/08 09:54:15;;;;;;;5.95;3.13;;;;;;;;;;6100103;23;20334;-85
2023/01/08 09:56:52;;;;;;;5.65;3.38;;;;;;;;;;6104636;23;20025;-85
2023/01/08 09:59:17;;;;;;;6.18;3.20;;;;;;;;;;6089819;23;20018;-84
2023/01/08 10:01:44;;;;;;;11.48;3.47;;;;;;;;;;6113234;23;20603;-84
2023/01/08 10:04:22;;;;;;;5.78;3.15;;;;;;;;;;6114452;23;20092;-85
2023/01/08 10:06:55;;;;;;;7.43;3.50;;;;;;;;;;6079747;23;20142;-85
2023/01/08 10:09:26;;;;;;;5.95;3.75;;;;;;;;;;6152853;23;20036;-85
2023/01/08 10:11:54;;;;;;;6.00;3.17;;;;;;;;;;6088882;23;20014;-84
2023/01/08 10:14:22;;;;;;;6.43;3.95;;;;;;;;;;6090146;23;20021;-85
2023/01/08 10:16:55;;;;;;;5.65;3.40;;;;;;;;;;6075111;23;20082;-85
2023/01/08 10:19:24;;;;;;;7.00;3.97;;;;;;;;;;6059921;23;20026;-86
2023/01/08 10:21:50;;;;;;;7.95;4.00;;;;;;;;;;6073444;23;20018;-85
2023/01/08 10:24:16;;;;;;;7.60;4.18;;;;;;;;;;6112800;23;20164;-85
2023/01/08 10:27:16;;;;;;;5.97;3.92;;;;;;;;;;6065149;23;20437;-86
2023/01/08 10:29:45;;;;;;;7.78;4.18;;;;;;;;;;6090334;23;20022;-85
2023/01/08 10:32:13;;;;;;;8.20;4.38;;;;;;;;;;6077803;23;20038;-86
2023/01/08 10:34:52;;;;;;;9.10;4.30;;;;;;;;;;6137000;23;20013;-84
2023/01/08 10:37:29;;;;;;;7.05;4.03;;;;;;;;;;6088512;23;20018;-85
2023/01/08 10:40:13;;;;;;;7.40;4.50;;;;;;;;;;6114903;23;20021;-85
2023/01/08 10:42:38;;;;;;;9.35;4.82;;;;;;;;;;6113155;23;20053;-85
2023/01/08 10:45:26;;;;;;;9.63;4.70;;;;;;;;;;6114707;23;20018;-84
2023/01/08 10:47:56;;;;;;;8.15;4.30;;;;;;;;;;6002922;23;20098;-84
2023/01/08 10:50:44;;;;;;;9.02;4.78;;;;;;;;;;5966675;23;20491;-87
2023/01/08 10:53:28;;;;;;;9.15;5.00;;;;;;;;;;6002521;23;20379;-87
2023/01/08 10:56:01;;;;;;;10.35;5.10;;;;;;;;;;5999822;23;20030;-87
2023/01/08 10:58:28;;;;;;;7.22;4.43;;;;;;;;;;5975145;23;20027;-85
2023/01/08 11:00:53;;;;;;;8.60;5.07;;;;;;;;;;5999915;23;20027;-85
2023/01/08 11:03:29;;;;;;;9.68;5.00;;;;;;;;;;5979160;23;20023;-85
2023/01/08 11:05:58;;;;;;;7.88;4.70;;;;;;;;;;5973129;23;20478;-86
2023/01/08 11:08:23;;;;;;;8.55;5.38;;;;;;;;;;6015419;23;20038;-87
2023/01/08 11:11:08;;;;;;;8.75;5.45;;;;;;;;;;5977853;23;20400;-84
2023/01/08 11:13:33;;;;;;;8.50;4.90;;;;;;;;;;5979529;23;20524;-84
2023/01/08 11:16:02;;;;;;;8.27;5.05;;;;;;;;;;6025350;23;20019;-85
2023/01/08 11:18:28;;;;;;;8.70;5.43;;;;;;;;;;6002160;23;20051;-84
2023/01/08 11:21:07;;;;;;;9.65;5.65;;;;;;;;;;5979646;23;20476;-83
2023/01/08 11:23:32;;;;;;;7.93;4.70;;;;;;;;;;6026579;23;20420;-83
2023/01/08 11:26:03;;;;;;;7.47;4.95;;;;;;;;;;6083291;23;20113;-83
2023/01/08 11:29:06;;;;;;;9.13;5.30;;;;;;;;;;6115066;23;20037;-85
2023/01/08 11:31:38;;;;;;;8.70;4.85;;;;;;;;;;6116457;23;20093;-83
2023/01/08 11:34:27;;;;;;;8.95;5.28;;;;;;;;;;6114745;23;20018;-84
2023/01/08 11:37:18;;;;;;;9.05;4.85;;;;;;;;;;6090406;23;20104;-83
2023/01/08 11:39:44;;;;;;;9.60;4.97;;;;;;;;;;6114111;23;20061;-84
2023/01/08 11:42:28;;;;;;;8.80;4.70;;;;;;;;;;6089660;23;20613;-83
2023/01/08 11:45:36;;;;;;;8.00;4.97;;;;;;;;;;6115175;23;20021;-83
2023/01/08 11:48:43;;;;;;;8.50;4.80;;;;;;;;;;6109511;23;20065;-85
2023/01/08 11:51:46;;;;;;;9.95;3.95;;;;;;;;;;6107130;23;20041;-84
2023/01/08 11:54:46;;;;;;;8.45;4.90;;;;;;;;;;6114785;23;20017;-84
2023/01/08 11:57:34;;;;;;;8.68;5.18;;;;;;;;;;6111426;23;20106;-84
2023/01/08 12:00:21;;;;;;;7.63;4.32;;;;;;;;;;6113213;23;20018;-84
2023/01/08 12:03:02;;;;;;;9.27;4.43;;;;;;;;;;6113887;23;20022;-83
2023/01/08 12:05:46;;;;;;;9.93;5.38;;;;;;;;;;6088564;23;20042;-83
2023/01/08 12:08:37;;;;;;;8.02;4.63;;;;;;;;;;6077953;23;20042;-84
2023/01/08 12:11:13;;;;;;;7.85;4.97;;;;;;;;;;6118470;23;20018;-84
2023/01/08 12:14:00;;;;;;;8.23;4.93;;;;;;;;;;6102416;23;20017;-83
2023/01/08 12:16:37;;;;;;;7.93;4.93;;;;;;;;;;6115086;23;20538;-84
2023/01/08 12:19:06;;;;;;;8.15;4.45;;;;;;;;;;6114434;23;20025;-85
2023/01/08 12:21:35;;;;;;;8.93;4.30;;;;;;;;;;6116434;23;20481;-85
2023/01/08 12:24:15;;;;;;;7.38;4.45;;;;;;;;;;6115015;23;20079;-86
2023/01/08 12:27:05;;;;;;;7.78;4.43;;;;;;;;;;6090324;23;20465;-84
2023/01/08 12:29:45;;;;;;;8.07;4.47;;;;;;;;;;6112658;23;20064;-85
2023/01/08 12:32:14;;;;;;;6.65;4.18;;;;;;;;;;6148798;23;20135;-85
2023/01/08 12:34:48;;;;;;;6.60;3.65;;;;;;;;;;6113057;23;20021;-85
2023/01/08 12:37:22;;;;;;;8.35;4.32;;;;;;;;;;6131490;23;20071;-83
2023/01/08 12:39:59;;;;;;;8.98;4.30;;;;;;;;;;6092888;23;20022;-85
2023/01/08 12:42:27;;;;;;;7.72;3.70;;;;;;;;;;6091576;23;20350;-85
2023/01/08 12:44:53;;;;;;;;;;;;;;;;;;6103689;23;20484;-85
2023/01/08 12:47:24;;;;;;;8.00;4.53;;;;;;;;;;6091257;23;19936;-84
2023/01/08 12:50:13;;;;;;;8.85;4.85;;;;;;;;;;6092882;23;20017;-84
2023/01/08 12:52:54;;;;;;;9.15;4.22;;;;;;;;;;6117644;23;20546;-84
2023/01/08 12:55:31;;;;;;;7.15;4.43;;;;;;;;;;6091389;23;20060;-81
2023/01/08 12:58:06;;;;;;;7.80;4.10;;;;;;;;;;6116048;23;20014;-85
2023/01/08 13:00:40;;;;;;;6.90;4.30;;;;;;;;;;6091670;23;20013;-84
2023/01/08 13:03:13;;;;;;;6.93;4.22;;;;;;;;;;6091977;23;20018;-85
2023/01/08 13:05:40;;;;;;;8.05;4.32;;;;;;;;;;6079746;23;20069;-83
2023/01/08 13:08:17;;;;;;;9.77;4.80;;;;;;;;;;6091737;23;20036;-85
2023/01/08 13:10:53;;;;;;;8.65;4.75;;;;;;;;;;6091116;23;20574;-83
2023/01/08 13:13:28;;;;;;;6.53;4.28;;;;;;;;;;6090557;23;20022;-84
2023/01/08 13:16:10;;;;;;;9.10;4.55;;;;;;;;;;6116033;23;20358;-84
2023/01/08 13:18:36;;;;;;;8.73;4.72;;;;;;;;;;6115851;23;20053;-83
2023/01/08 13:21:03;;;;;;;6.82;4.57;;;;;;;;;;6091817;23;20084;-86
2023/01/08 13:23:30;;;;;;;8.55;4.53;;;;;;;;;;6091029;23;20541;-84
2023/01/08 13:25:57;;;;;;;8.65;4.82;;;;;;;;;;6115611;23;20017;-84
2023/01/08 13:28:35;;;;;;;8.02;4.55;;;;;;;;;;6116781;23;20088;-83
2023/01/08 13:31:35;;;;;;;;;;;;;;;;;;6125995;23;20345;-84
2023/01/08 13:34:00;;;;;;;8.52;4.60;;;;;;;;;;5989772;23;19920;-84
2023/01/08 13:36:37;;;;;;;9.95;5.00;;;;;;;;;;6095885;23;20512;-84
2023/01/08 13:39:12;;;;;;;8.77;5.32;;;;;;;;;;6091279;23;20331;-84
2023/01/08 13:41:55;;;;;;;11.73;5.80;;;;;;;;;;6114481;23;20017;-86
2023/01/08 13:44:28;;;;;;;10.60;5.80;;;;;;;;;;6091046;23;20441;-84
2023/01/08 13:46:57;;;;;;;10.18;5.57;;;;;;;;;;6077486;23;20026;-83
2023/01/08 13:49:27;;;;;;;9.75;6.13;;;;;;;;;;6064467;23;20017;-85
2023/01/08 13:51:56;;;;;;;9.68;5.65;;;;;;;;;;6090809;23;20005;-86
2023/01/08 13:54:30;;;;;;;10.43;6.18;;;;;;;;;;6076784;23;20140;-84
2023/01/08 13:57:02;;;;;;;9.38;5.53;;;;;;;;;;6066999;23;20081;-84
2023/01/08 13:59:42;;;;;;;9.10;5.75;;;;;;;;;;6115209;23;20014;-84
2023/01/08 14:02:28;;;;;;;9.77;6.15;;;;;;;;;;6105653;23;20023;-84
2023/01/08 14:04:58;;;;;;;9.35;5.78;;;;;;;;;;6092127;23;20085;-83
2023/01/08 14:07:24;;;;;;;10.30;6.07;;;;;;;;;;6115731;23;20890;-84
2023/01/08 14:09:50;;;;;;;8.55;5.38;;;;;;;;;;6091518;23;20122;-84
2023/01/08 14:12:21;;;;;;;9.43;5.10;;;;;;;;;;6090108;23;20026;-84
2023/01/08 14:14:52;;;;;;;8.35;4.97;;;;;;;;;;6091861;23;20021;-84
2023/01/08 14:17:20;;;;;;;9.98;5.90;;;;;;;;;;6091074;23;20021;-84
2023/01/08 14:19:46;;;;;;;9.30;5.72;;;;;;;;;;6091932;23;20014;-85
2023/01/08 14:22:19;;;;;;;9.50;6.15;;;;;;;;;;6090703;23;20105;-85
2023/01/08 14:24:48;;;;;;;9.40;5.95;;;;;;;;;;6095659;23;20329;-85
2023/01/08 14:27:28;;;;;;;10.43;7.10;;;;;;;;;;6099412;23;20022;-85
2023/01/08 14:29:54;;;;;;;10.00;5.55;;;;;;;;;;6090911;23;20018;-84
2023/01/08 14:32:25;;;;;;;10.43;6.00;;;;;;;;;;6090496;23;20022;-84
2023/01/08 14:34:52;;;;;;;10.38;6.47;;;;;;;;;;6079362;23;20516;-85
2023/01/08 14:37:17;;;;;;;8.90;5.50;;;;;;;;;;6090421;23;20069;-85
2023/01/08 14:39:45;;;;;;;10.05;5.60;;;;;;;;;;6116092;23;20049;-86
2023/01/08 14:45:30;;;;;;;10.45;5.85;;;;;;;;;;6086953;23;20052;-84
2023/01/08 14:48:11;;;;;;;9.77;5.45;;;;;;;;;;6090351;23;20429;-85
2023/01/08 14:50:42;;;;;;;10.07;6.18;;;;;;;;;;6074664;23;20018;-85
2023/01/08 14:53:32;;;;;;;11.63;5.88;;;;;;;;;;6090945;23;20087;-84
2023/01/08 14:56:04;;;;;;;9.85;6.07;;;;;;;;;;6089512;23;20163;-83
2023/01/08 14:58:35;;;;;;;9.80;5.32;;;;;;;;;;6090504;23;20108;-84
2023/01/08 15:01:06;;;;;;;11.35;6.03;;;;;;;;;;6090345;23;20022;-84
2023/01/08 15:03:40;;;;;;;11.52;6.30;;;;;;;;;;6074241;23;20113;-84
2023/01/08 15:06:27;;;;;;;10.35;6.38;;;;;;;;;;6045287;23;20018;-84